sensor_id;sensor_type;location;lat;lon;timestamp;P1;durP1;ratioP1;P2;durP2;ratioP2
30613;SDS011;17381;51.690;5.270;2022-08-21T00:01:43;3.38;;;1.50;;
30613;SDS011;17381;51.690;5.270;2022-08-21T00:35:24;4.18;;;1.20;;
30613;SDS011;17381;51.690;5.270;2022-08-21T00:42:33;3.40;;;1.60;;
30613;SDS011;17381;51.690;5.270;2022-08-21T00:53:22;3.72;;;1.70;;
30613;SDS011;17381;51.690;5.270;2022-08-21T00:56:41;3.65;;;1.90;;
30613;SDS011;17381;51.690;5.270;2022-08-21T01:03:04;4.05;;;2.00;;
30613;SDS011;17381;51.690;5.270;2022-08-21T01:06:11;4.45;;;2.55;;
30613;SDS011;17381;51.690;5.270;2022-08-21T01:25:28;6.70;;;1.92;;
30613;SDS011;17381;51.690;5.270;2022-08-21T01:28:47;3.63;;;1.90;;
30613;SDS011;17381;51.690;5.270;2022-08-21T01:32:11;3.08;;;1.63;;
30613;SDS011;17381;51.690;5.270;2022-08-21T01:35:35;3.63;;;1.90;;
30613;SDS011;17381;51.690;5.270;2022-08-21T01:39:01;6.03;;;2.53;;
30613;SDS011;17381;51.690;5.270;2022-08-21T01:42:22;5.53;;;3.08;;
30613;SDS011;17381;51.690;5.270;2022-08-21T01:45:55;5.93;;;3.20;;
30613;SDS011;17381;51.690;5.270;2022-08-21T01:49:13;5.32;;;2.80;;
30613;SDS011;17381;51.690;5.270;2022-08-21T01:52:34;6.55;;;3.28;;
30613;SDS011;17381;51.690;5.270;2022-08-21T01:55:44;6.70;;;3.13;;
30613;SDS011;17381;51.690;5.270;2022-08-21T01:59:02;5.35;;;3.10;;
30613;SDS011;17381;51.690;5.270;2022-08-21T02:02:18;5.88;;;3.30;;
30613;SDS011;17381;51.690;5.270;2022-08-21T02:05:46;5.38;;;3.30;;
30613;SDS011;17381;51.690;5.270;2022-08-21T02:09:07;5.57;;;2.55;;
30613;SDS011;17381;51.690;5.270;2022-08-21T02:12:44;5.68;;;2.60;;
30613;SDS011;17381;51.690;5.270;2022-08-21T02:15:46;5.35;;;3.05;;
30613;SDS011;17381;51.690;5.270;2022-08-21T02:19:13;5.18;;;2.70;;
30613;SDS011;17381;51.690;5.270;2022-08-21T02:22:39;4.82;;;2.28;;
30613;SDS011;17381;51.690;5.270;2022-08-21T02:26:04;5.45;;;2.50;;
30613;SDS011;17381;51.690;5.270;2022-08-21T02:29:06;5.35;;;2.95;;
30613;SDS011;17381;51.690;5.270;2022-08-21T02:32:17;4.65;;;2.85;;
30613;SDS011;17381;51.690;5.270;2022-08-21T02:35:29;4.95;;;2.80;;
30613;SDS011;17381;51.690;5.270;2022-08-21T02:38:32;6.43;;;3.10;;
30613;SDS011;17381;51.690;5.270;2022-08-21T02:42:16;6.20;;;3.00;;
30613;SDS011;17381;51.690;5.270;2022-08-21T02:53:05;5.57;;;3.47;;
30613;SDS011;17381;51.690;5.270;2022-08-21T02:56:16;6.07;;;3.35;;
30613;SDS011;17381;51.690;5.270;2022-08-21T02:59:37;8.88;;;3.50;;
30613;SDS011;17381;51.690;5.270;2022-08-21T03:02:52;6.53;;;3.45;;
30613;SDS011;17381;51.690;5.270;2022-08-21T03:05:50;5.57;;;3.17;;
30613;SDS011;17381;51.690;5.270;2022-08-21T03:09:13;4.88;;;3.53;;
30613;SDS011;17381;51.690;5.270;2022-08-21T03:12:39;5.20;;;3.40;;
30613;SDS011;17381;51.690;5.270;2022-08-21T03:16:15;5.47;;;3.55;;
30613;SDS011;17381;51.690;5.270;2022-08-21T03:19:50;6.18;;;3.85;;
30613;SDS011;17381;51.690;5.270;2022-08-21T03:22:48;7.15;;;3.13;;
30613;SDS011;17381;51.690;5.270;2022-08-21T03:25:47;6.05;;;2.90;;
30613;SDS011;17381;51.690;5.270;2022-08-21T03:28:46;5.22;;;3.17;;
30613;SDS011;17381;51.690;5.270;2022-08-21T03:32:00;6.18;;;2.92;;
30613;SDS011;17381;51.690;5.270;2022-08-21T03:34:43;5.55;;;3.10;;
30613;SDS011;17381;51.690;5.270;2022-08-21T03:37:36;5.85;;;3.30;;
30613;SDS011;17381;51.690;5.270;2022-08-21T03:40:35;5.03;;;2.92;;
30613;SDS011;17381;51.690;5.270;2022-08-21T03:43:10;6.45;;;3.17;;
30613;SDS011;17381;51.690;5.270;2022-08-21T03:46:00;5.22;;;3.20;;
30613;SDS011;17381;51.690;5.270;2022-08-21T03:48:56;5.70;;;2.97;;
30613;SDS011;17381;51.690;5.270;2022-08-21T03:51:44;5.82;;;2.75;;
30613;SDS011;17381;51.690;5.270;2022-08-21T03:54:29;5.85;;;3.75;;
30613;SDS011;17381;51.690;5.270;2022-08-21T03:57:14;7.25;;;3.85;;
30613;SDS011;17381;51.690;5.270;2022-08-21T04:00:01;5.43;;;3.30;;
30613;SDS011;17381;51.690;5.270;2022-08-21T04:03:09;6.03;;;3.10;;
30613;SDS011;17381;51.690;5.270;2022-08-21T04:05:55;5.28;;;3.13;;
30613;SDS011;17381;51.690;5.270;2022-08-21T04:08:46;5.68;;;2.75;;
30613;SDS011;17381;51.690;5.270;2022-08-21T04:11:41;6.75;;;3.35;;
30613;SDS011;17381;51.690;5.270;2022-08-21T04:14:54;7.07;;;3.15;;
30613;SDS011;17381;51.690;5.270;2022-08-21T04:17:49;5.93;;;3.03;;
30613;SDS011;17381;51.690;5.270;2022-08-21T04:20:33;5.07;;;2.90;;
30613;SDS011;17381;51.690;5.270;2022-08-21T04:23:09;5.18;;;2.83;;
30613;SDS011;17381;51.690;5.270;2022-08-21T04:26:09;5.22;;;3.08;;
30613;SDS011;17381;51.690;5.270;2022-08-21T04:28:58;5.80;;;3.67;;
30613;SDS011;17381;51.690;5.270;2022-08-21T04:31:58;6.70;;;2.97;;
30613;SDS011;17381;51.690;5.270;2022-08-21T04:34:43;5.97;;;3.13;;
30613;SDS011;17381;51.690;5.270;2022-08-21T04:37:28;8.60;;;3.40;;
30613;SDS011;17381;51.690;5.270;2022-08-21T04:40:09;7.63;;;4.28;;
30613;SDS011;17381;51.690;5.270;2022-08-21T04:43:02;5.53;;;3.05;;
30613;SDS011;17381;51.690;5.270;2022-08-21T04:48:26;8.00;;;3.17;;
30613;SDS011;17381;51.690;5.270;2022-08-21T04:51:04;5.93;;;3.53;;
30613;SDS011;17381;51.690;5.270;2022-08-21T04:53:55;6.70;;;3.58;;
30613;SDS011;17381;51.690;5.270;2022-08-21T04:56:42;7.00;;;3.22;;
30613;SDS011;17381;51.690;5.270;2022-08-21T04:59:44;7.03;;;3.88;;
30613;SDS011;17381;51.690;5.270;2022-08-21T05:02:33;6.38;;;3.53;;
30613;SDS011;17381;51.690;5.270;2022-08-21T05:05:18;4.68;;;3.00;;
30613;SDS011;17381;51.690;5.270;2022-08-21T05:08:18;5.07;;;3.20;;
30613;SDS011;17381;51.690;5.270;2022-08-21T05:11:03;5.80;;;3.20;;
30613;SDS011;17381;51.690;5.270;2022-08-21T05:13:40;5.90;;;3.47;;
30613;SDS011;17381;51.690;5.270;2022-08-21T05:16:42;5.22;;;2.85;;
30613;SDS011;17381;51.690;5.270;2022-08-21T05:19:50;5.55;;;3.22;;
30613;SDS011;17381;51.690;5.270;2022-08-21T05:22:25;6.15;;;3.30;;
30613;SDS011;17381;51.690;5.270;2022-08-21T05:25:04;5.35;;;2.78;;
30613;SDS011;17381;51.690;5.270;2022-08-21T05:27:53;7.25;;;3.70;;
30613;SDS011;17381;51.690;5.270;2022-08-21T05:30:31;6.97;;;3.50;;
30613;SDS011;17381;51.690;5.270;2022-08-21T05:33:11;7.18;;;3.22;;
30613;SDS011;17381;51.690;5.270;2022-08-21T05:35:48;6.68;;;3.03;;
30613;SDS011;17381;51.690;5.270;2022-08-21T05:39:02;7.65;;;3.72;;
30613;SDS011;17381;51.690;5.270;2022-08-21T05:42:09;6.43;;;3.03;;
30613;SDS011;17381;51.690;5.270;2022-08-21T05:45:00;6.82;;;3.20;;
30613;SDS011;17381;51.690;5.270;2022-08-21T05:47:47;5.90;;;3.00;;
30613;SDS011;17381;51.690;5.270;2022-08-21T05:50:28;6.65;;;3.20;;
30613;SDS011;17381;51.690;5.270;2022-08-21T05:53:27;4.72;;;2.80;;
30613;SDS011;17381;51.690;5.270;2022-08-21T05:56:23;5.28;;;2.60;;
30613;SDS011;17381;51.690;5.270;2022-08-21T05:59:09;5.63;;;2.90;;
30613;SDS011;17381;51.690;5.270;2022-08-21T06:01:58;9.30;;;3.22;;
30613;SDS011;17381;51.690;5.270;2022-08-21T06:04:41;6.18;;;2.75;;
30613;SDS011;17381;51.690;5.270;2022-08-21T06:07:39;5.57;;;2.70;;
30613;SDS011;17381;51.690;5.270;2022-08-21T06:10:25;4.97;;;2.95;;
30613;SDS011;17381;51.690;5.270;2022-08-21T06:13:00;7.43;;;2.65;;
30613;SDS011;17381;51.690;5.270;2022-08-21T06:15:38;5.90;;;2.83;;
30613;SDS011;17381;51.690;5.270;2022-08-21T06:18:22;6.15;;;2.75;;
30613;SDS011;17381;51.690;5.270;2022-08-21T06:21:08;8.55;;;2.80;;
30613;SDS011;17381;51.690;5.270;2022-08-21T06:23:49;4.60;;;2.13;;
30613;SDS011;17381;51.690;5.270;2022-08-21T06:26:38;9.30;;;2.85;;
30613;SDS011;17381;51.690;5.270;2022-08-21T06:29:36;5.38;;;2.63;;
30613;SDS011;17381;51.690;5.270;2022-08-21T06:36:17;4.82;;;2.40;;
30613;SDS011;17381;51.690;5.270;2022-08-21T06:39:21;4.13;;;2.28;;
30613;SDS011;17381;51.690;5.270;2022-08-21T06:42:12;5.93;;;2.38;;
30613;SDS011;17381;51.690;5.270;2022-08-21T06:45:15;10.23;;;2.90;;
30613;SDS011;17381;51.690;5.270;2022-08-21T06:48:11;5.85;;;2.88;;
30613;SDS011;17381;51.690;5.270;2022-08-21T06:50:46;5.68;;;2.63;;
30613;SDS011;17381;51.690;5.270;2022-08-21T06:53:48;7.05;;;2.53;;
30613;SDS011;17381;51.690;5.270;2022-08-21T06:56:38;5.93;;;2.63;;
30613;SDS011;17381;51.690;5.270;2022-08-21T07:02:33;7.13;;;2.45;;
30613;SDS011;17381;51.690;5.270;2022-08-21T07:05:17;5.45;;;2.22;;
30613;SDS011;17381;51.690;5.270;2022-08-21T07:08:20;5.38;;;2.50;;
30613;SDS011;17381;51.690;5.270;2022-08-21T07:11:01;6.57;;;2.88;;
30613;SDS011;17381;51.690;5.270;2022-08-21T07:13:48;7.70;;;2.75;;
30613;SDS011;17381;51.690;5.270;2022-08-21T07:16:22;7.32;;;2.90;;
30613;SDS011;17381;51.690;5.270;2022-08-21T07:19:08;6.68;;;2.20;;
30613;SDS011;17381;51.690;5.270;2022-08-21T07:21:41;6.60;;;2.60;;
30613;SDS011;17381;51.690;5.270;2022-08-21T07:24:13;5.68;;;2.40;;
30613;SDS011;17381;51.690;5.270;2022-08-21T07:27:03;7.00;;;2.03;;
30613;SDS011;17381;51.690;5.270;2022-08-21T07:29:45;9.40;;;2.47;;
30613;SDS011;17381;51.690;5.270;2022-08-21T07:32:21;7.00;;;2.53;;
30613;SDS011;17381;51.690;5.270;2022-08-21T07:38:05;5.40;;;2.15;;
30613;SDS011;17381;51.690;5.270;2022-08-21T07:40:57;4.82;;;1.60;;
30613;SDS011;17381;51.690;5.270;2022-08-21T07:43:39;6.35;;;2.47;;
30613;SDS011;17381;51.690;5.270;2022-08-21T07:49:56;6.55;;;2.17;;
30613;SDS011;17381;51.690;5.270;2022-08-21T07:52:34;6.85;;;2.13;;
30613;SDS011;17381;51.690;5.270;2022-08-21T07:55:10;5.07;;;1.95;;
30613;SDS011;17381;51.690;5.270;2022-08-21T07:58:18;6.43;;;1.83;;
30613;SDS011;17381;51.690;5.270;2022-08-21T08:01:06;6.22;;;1.73;;
30613;SDS011;17381;51.690;5.270;2022-08-21T08:03:54;12.18;;;2.10;;
30613;SDS011;17381;51.690;5.270;2022-08-21T08:06:38;7.45;;;2.40;;
30613;SDS011;17381;51.690;5.270;2022-08-21T08:09:06;5.13;;;1.67;;
30613;SDS011;17381;51.690;5.270;2022-08-21T08:11:59;9.88;;;2.30;;
30613;SDS011;17381;51.690;5.270;2022-08-21T08:14:37;5.78;;;2.08;;
30613;SDS011;17381;51.690;5.270;2022-08-21T08:17:09;9.32;;;2.33;;
30613;SDS011;17381;51.690;5.270;2022-08-21T08:19:56;5.45;;;1.60;;
30613;SDS011;17381;51.690;5.270;2022-08-21T08:23:03;8.07;;;2.40;;
30613;SDS011;17381;51.690;5.270;2022-08-21T08:25:39;6.68;;;2.10;;
30613;SDS011;17381;51.690;5.270;2022-08-21T08:28:21;4.88;;;1.42;;
30613;SDS011;17381;51.690;5.270;2022-08-21T08:30:55;6.80;;;1.60;;
30613;SDS011;17381;51.690;5.270;2022-08-21T08:33:37;4.60;;;1.70;;
30613;SDS011;17381;51.690;5.270;2022-08-21T08:36:34;8.13;;;2.15;;
30613;SDS011;17381;51.690;5.270;2022-08-21T08:39:11;6.25;;;1.77;;
30613;SDS011;17381;51.690;5.270;2022-08-21T08:41:47;4.35;;;1.60;;
30613;SDS011;17381;51.690;5.270;2022-08-21T08:44:27;10.98;;;1.67;;
30613;SDS011;17381;51.690;5.270;2022-08-21T08:47:02;6.88;;;1.45;;
30613;SDS011;17381;51.690;5.270;2022-08-21T08:50:23;9.65;;;2.10;;
30613;SDS011;17381;51.690;5.270;2022-08-21T08:52:37;5.07;;;1.90;;
30613;SDS011;17381;51.690;5.270;2022-08-21T08:55:32;5.40;;;1.67;;
30613;SDS011;17381;51.690;5.270;2022-08-21T08:58:32;6.93;;;2.00;;
30613;SDS011;17381;51.690;5.270;2022-08-21T09:01:22;6.60;;;1.95;;
30613;SDS011;17381;51.690;5.270;2022-08-21T09:04:17;5.47;;;1.60;;
30613;SDS011;17381;51.690;5.270;2022-08-21T09:07:12;8.10;;;1.58;;
30613;SDS011;17381;51.690;5.270;2022-08-21T09:10:21;8.13;;;1.65;;
30613;SDS011;17381;51.690;5.270;2022-08-21T09:14:01;4.60;;;1.65;;
30613;SDS011;17381;51.690;5.270;2022-08-21T09:16:55;5.40;;;1.60;;
30613;SDS011;17381;51.690;5.270;2022-08-21T09:19:58;5.65;;;1.88;;
30613;SDS011;17381;51.690;5.270;2022-08-21T09:22:52;5.45;;;1.35;;
30613;SDS011;17381;51.690;5.270;2022-08-21T09:26:02;6.22;;;1.75;;
30613;SDS011;17381;51.690;5.270;2022-08-21T09:28:42;6.63;;;1.67;;
30613;SDS011;17381;51.690;5.270;2022-08-21T09:31:35;3.58;;;1.13;;
30613;SDS011;17381;51.690;5.270;2022-08-21T09:34:24;6.75;;;2.10;;
30613;SDS011;17381;51.690;5.270;2022-08-21T09:37:23;3.20;;;1.00;;
30613;SDS011;17381;51.690;5.270;2022-08-21T09:40:03;4.00;;;1.30;;
30613;SDS011;17381;51.690;5.270;2022-08-21T09:42:58;5.90;;;1.40;;
30613;SDS011;17381;51.690;5.270;2022-08-21T09:46:01;7.18;;;1.40;;
30613;SDS011;17381;51.690;5.270;2022-08-21T09:48:53;5.13;;;1.30;;
30613;SDS011;17381;51.690;5.270;2022-08-21T09:51:34;6.25;;;1.85;;
30613;SDS011;17381;51.690;5.270;2022-08-21T09:54:44;6.78;;;1.40;;
30613;SDS011;17381;51.690;5.270;2022-08-21T09:57:19;5.90;;;1.23;;
30613;SDS011;17381;51.690;5.270;2022-08-21T10:00:39;5.25;;;1.08;;
30613;SDS011;17381;51.690;5.270;2022-08-21T10:03:32;7.03;;;1.33;;
30613;SDS011;17381;51.690;5.270;2022-08-21T10:06:45;5.00;;;1.17;;
30613;SDS011;17381;51.690;5.270;2022-08-21T10:09:22;8.38;;;1.50;;
30613;SDS011;17381;51.690;5.270;2022-08-21T10:12:11;3.05;;;0.90;;
30613;SDS011;17381;51.690;5.270;2022-08-21T10:18:41;5.07;;;1.35;;
30613;SDS011;17381;51.690;5.270;2022-08-21T10:24:55;4.28;;;0.90;;
30613;SDS011;17381;51.690;5.270;2022-08-21T10:34:34;5.75;;;1.17;;
30613;SDS011;17381;51.690;5.270;2022-08-21T10:56:24;3.88;;;1.20;;
30613;SDS011;17381;51.690;5.270;2022-08-21T11:05:55;4.85;;;1.70;;
30613;SDS011;17381;51.690;5.270;2022-08-21T11:09:11;5.00;;;1.65;;
30613;SDS011;17381;51.690;5.270;2022-08-21T11:12:01;5.72;;;2.28;;
30613;SDS011;17381;51.690;5.270;2022-08-21T11:15:26;4.43;;;1.38;;
30613;SDS011;17381;51.690;5.270;2022-08-21T11:18:21;5.03;;;1.50;;
30613;SDS011;17381;51.690;5.270;2022-08-21T11:21:42;4.50;;;1.58;;
30613;SDS011;17381;51.690;5.270;2022-08-21T11:24:34;6.38;;;1.90;;
30613;SDS011;17381;51.690;5.270;2022-08-21T11:27:33;6.32;;;2.03;;
30613;SDS011;17381;51.690;5.270;2022-08-21T11:30:32;4.43;;;1.65;;
30613;SDS011;17381;51.690;5.270;2022-08-21T11:53:42;5.20;;;1.08;;
30613;SDS011;17381;51.690;5.270;2022-08-21T11:56:51;5.18;;;1.10;;
30613;SDS011;17381;51.690;5.270;2022-08-21T12:02:21;3.10;;;0.80;;
30613;SDS011;17381;51.690;5.270;2022-08-21T12:05:33;4.03;;;1.15;;
30613;SDS011;17381;51.690;5.270;2022-08-21T12:16:10;2.75;;;0.70;;
30613;SDS011;17381;51.690;5.270;2022-08-21T12:18:07;6.72;;;1.27;;
30613;SDS011;17381;51.690;5.270;2022-08-21T12:21:23;4.28;;;1.13;;
30613;SDS011;17381;51.690;5.270;2022-08-21T12:30:45;5.25;;;1.00;;
30613;SDS011;17381;51.690;5.270;2022-08-21T12:33:32;3.17;;;0.88;;
30613;SDS011;17381;51.690;5.270;2022-08-21T12:36:27;9.00;;;2.00;;
30613;SDS011;17381;51.690;5.270;2022-08-21T12:39:35;4.28;;;1.13;;
30613;SDS011;17381;51.690;5.270;2022-08-21T12:49:50;4.97;;;0.98;;
30613;SDS011;17381;51.690;5.270;2022-08-21T12:52:51;3.75;;;0.80;;
30613;SDS011;17381;51.690;5.270;2022-08-21T12:55:48;3.85;;;1.10;;
30613;SDS011;17381;51.690;5.270;2022-08-21T12:58:46;3.63;;;0.88;;
30613;SDS011;17381;51.690;5.270;2022-08-21T13:04:26;3.88;;;0.90;;
30613;SDS011;17381;51.690;5.270;2022-08-21T13:07:28;3.20;;;0.90;;
30613;SDS011;17381;51.690;5.270;2022-08-21T13:14:03;3.33;;;0.90;;
30613;SDS011;17381;51.690;5.270;2022-08-21T13:16:46;5.13;;;1.25;;
30613;SDS011;17381;51.690;5.270;2022-08-21T13:19:17;2.35;;;0.50;;
30613;SDS011;17381;51.690;5.270;2022-08-21T13:22:03;3.60;;;1.00;;
30613;SDS011;17381;51.690;5.270;2022-08-21T13:25:11;3.13;;;0.90;;
30613;SDS011;17381;51.690;5.270;2022-08-21T13:28:31;3.65;;;0.88;;
30613;SDS011;17381;51.690;5.270;2022-08-21T13:30:56;4.75;;;0.80;;
30613;SDS011;17381;51.690;5.270;2022-08-21T13:41:01;2.92;;;0.68;;
30613;SDS011;17381;51.690;5.270;2022-08-21T13:47:01;3.15;;;0.80;;
30613;SDS011;17381;51.690;5.270;2022-08-21T13:50:00;4.10;;;1.00;;
30613;SDS011;17381;51.690;5.270;2022-08-21T13:52:44;2.50;;;0.73;;
30613;SDS011;17381;51.690;5.270;2022-08-21T13:55:48;4.57;;;0.88;;
30613;SDS011;17381;51.690;5.270;2022-08-21T13:58:25;2.70;;;0.70;;
30613;SDS011;17381;51.690;5.270;2022-08-21T14:01:29;3.15;;;0.77;;
30613;SDS011;17381;51.690;5.270;2022-08-21T14:04:31;2.90;;;0.60;;
30613;SDS011;17381;51.690;5.270;2022-08-21T14:07:21;3.63;;;0.55;;
30613;SDS011;17381;51.690;5.270;2022-08-21T14:10:32;5.45;;;1.00;;
30613;SDS011;17381;51.690;5.270;2022-08-21T14:14:12;3.83;;;0.93;;
30613;SDS011;17381;51.690;5.270;2022-08-21T14:17:01;3.80;;;0.65;;
30613;SDS011;17381;51.690;5.270;2022-08-21T14:20:09;4.00;;;0.90;;
30613;SDS011;17381;51.690;5.270;2022-08-21T14:23:26;3.45;;;0.57;;
30613;SDS011;17381;51.690;5.270;2022-08-21T14:26:13;6.32;;;1.40;;
30613;SDS011;17381;51.690;5.270;2022-08-21T14:28:58;3.42;;;0.82;;
30613;SDS011;17381;51.690;5.270;2022-08-21T14:31:57;3.03;;;0.88;;
30613;SDS011;17381;51.690;5.270;2022-08-21T14:35:07;3.22;;;0.88;;
30613;SDS011;17381;51.690;5.270;2022-08-21T14:37:46;3.90;;;0.85;;
30613;SDS011;17381;51.690;5.270;2022-08-21T14:40:21;3.55;;;0.80;;
30613;SDS011;17381;51.690;5.270;2022-08-21T14:43:07;3.70;;;0.75;;
30613;SDS011;17381;51.690;5.270;2022-08-21T14:46:03;3.80;;;0.80;;
30613;SDS011;17381;51.690;5.270;2022-08-21T14:48:48;4.72;;;0.88;;
30613;SDS011;17381;51.690;5.270;2022-08-21T14:51:21;3.10;;;0.60;;
30613;SDS011;17381;51.690;5.270;2022-08-21T14:53:54;4.45;;;0.60;;
30613;SDS011;17381;51.690;5.270;2022-08-21T14:56:24;2.30;;;0.65;;
30613;SDS011;17381;51.690;5.270;2022-08-21T15:04:41;3.47;;;1.08;;
30613;SDS011;17381;51.690;5.270;2022-08-21T15:07:32;3.47;;;0.90;;
30613;SDS011;17381;51.690;5.270;2022-08-21T15:10:14;5.40;;;1.02;;
30613;SDS011;17381;51.690;5.270;2022-08-21T15:13:10;3.72;;;0.95;;
30613;SDS011;17381;51.690;5.270;2022-08-21T15:15:45;3.80;;;1.10;;
30613;SDS011;17381;51.690;5.270;2022-08-21T16:27:41;2.80;;;1.02;;
30613;SDS011;17381;51.690;5.270;2022-08-21T17:32:04;4.22;;;1.00;;
